sensor_id;sensor_type;location;lat;lon;timestamp;temperature;humidity
69331;DHT22;56475;52.114;5.480;2022-07-23T00:01:02;14.60;80.20
69331;DHT22;56475;52.114;5.480;2022-07-23T00:03:29;14.60;80.60
69331;DHT22;56475;52.114;5.480;2022-07-23T00:05:56;14.50;80.30
69331;DHT22;56475;52.114;5.480;2022-07-23T00:08:23;14.50;80.80
69331;DHT22;56475;52.114;5.480;2022-07-23T00:10:50;14.50;81.10
69331;DHT22;56475;52.114;5.480;2022-07-23T00:13:43;14.40;81.10
69331;DHT22;56475;52.114;5.480;2022-07-23T00:16:10;14.50;83.60
69331;DHT22;56475;52.114;5.480;2022-07-23T00:22:14;14.30;83.40
69331;DHT22;56475;52.114;5.480;2022-07-23T00:24:41;14.20;81.90
69331;DHT22;56475;52.114;5.480;2022-07-23T00:27:08;14.10;82.00
69331;DHT22;56475;52.114;5.480;2022-07-23T00:29:35;14.10;82.10
69331;DHT22;56475;52.114;5.480;2022-07-23T00:32:02;14.10;82.20
69331;DHT22;56475;52.114;5.480;2022-07-23T00:34:29;14.00;82.30
69331;DHT22;56475;52.114;5.480;2022-07-23T00:36:57;14.00;82.40
69331;DHT22;56475;52.114;5.480;2022-07-23T00:39:24;13.90;82.20
69331;DHT22;56475;52.114;5.480;2022-07-23T00:41:51;14.00;82.60
69331;DHT22;56475;52.114;5.480;2022-07-23T00:44:24;13.90;82.90
69331;DHT22;56475;52.114;5.480;2022-07-23T00:46:57;13.90;85.40
69331;DHT22;56475;52.114;5.480;2022-07-23T00:49:27;14.00;83.50
69331;DHT22;56475;52.114;5.480;2022-07-23T00:55:41;13.90;84.40
69331;DHT22;56475;52.114;5.480;2022-07-23T00:58:09;14.00;84.50
69331;DHT22;56475;52.114;5.480;2022-07-23T01:00:37;13.80;83.50
69331;DHT22;56475;52.114;5.480;2022-07-23T01:03:04;13.70;84.00
69331;DHT22;56475;52.114;5.480;2022-07-23T01:05:31;13.80;82.80
69331;DHT22;56475;52.114;5.480;2022-07-23T01:07:58;14.30;83.00
69331;DHT22;56475;52.114;5.480;2022-07-23T01:10:26;13.80;84.00
69331;DHT22;56475;52.114;5.480;2022-07-23T01:13:05;13.80;82.50
69331;DHT22;56475;52.114;5.480;2022-07-23T01:15:34;13.70;84.70
69331;DHT22;56475;52.114;5.480;2022-07-23T01:18:03;13.70;84.00
69331;DHT22;56475;52.114;5.480;2022-07-23T01:20:31;13.60;83.90
69331;DHT22;56475;52.114;5.480;2022-07-23T01:22:59;13.70;83.80
69331;DHT22;56475;52.114;5.480;2022-07-23T01:25:26;13.60;83.20
69331;DHT22;56475;52.114;5.480;2022-07-23T01:27:56;13.60;83.40
69331;DHT22;56475;52.114;5.480;2022-07-23T01:30:23;13.50;83.30
69331;DHT22;56475;52.114;5.480;2022-07-23T01:32:51;14.10;83.80
69331;DHT22;56475;52.114;5.480;2022-07-23T01:35:19;13.50;84.00
69331;DHT22;56475;52.114;5.480;2022-07-23T01:37:47;14.20;85.60
69331;DHT22;56475;52.114;5.480;2022-07-23T01:40:18;13.50;84.10
69331;DHT22;56475;52.114;5.480;2022-07-23T01:43:03;13.30;85.70
69331;DHT22;56475;52.114;5.480;2022-07-23T01:45:32;13.30;86.80
69331;DHT22;56475;52.114;5.480;2022-07-23T01:47:59;13.30;84.50
69331;DHT22;56475;52.114;5.480;2022-07-23T01:50:26;13.20;84.50
69331;DHT22;56475;52.114;5.480;2022-07-23T01:53:20;13.30;85.70
69331;DHT22;56475;52.114;5.480;2022-07-23T01:55:47;13.30;84.60
69331;DHT22;56475;52.114;5.480;2022-07-23T01:58:15;13.10;84.80
69331;DHT22;56475;52.114;5.480;2022-07-23T02:00:42;13.10;84.50
69331;DHT22;56475;52.114;5.480;2022-07-23T02:03:09;13.00;84.70
69331;DHT22;56475;52.114;5.480;2022-07-23T02:08:57;13.00;86.50
69331;DHT22;56475;52.114;5.480;2022-07-23T02:11:26;13.00;86.20
69331;DHT22;56475;52.114;5.480;2022-07-23T02:13:53;12.90;86.00
69331;DHT22;56475;52.114;5.480;2022-07-23T02:16:20;12.80;85.00
69331;DHT22;56475;52.114;5.480;2022-07-23T02:18:48;12.80;85.00
69331;DHT22;56475;52.114;5.480;2022-07-23T02:21:16;12.80;85.20
69331;DHT22;56475;52.114;5.480;2022-07-23T02:23:43;13.00;85.40
69331;DHT22;56475;52.114;5.480;2022-07-23T02:26:12;12.70;85.30
69331;DHT22;56475;52.114;5.480;2022-07-23T02:39:03;12.60;87.70
69331;DHT22;56475;52.114;5.480;2022-07-23T02:41:32;12.70;86.10
69331;DHT22;56475;52.114;5.480;2022-07-23T02:43:59;12.70;86.10
69331;DHT22;56475;52.114;5.480;2022-07-23T02:46:32;12.50;86.10
69331;DHT22;56475;52.114;5.480;2022-07-23T02:49:00;12.50;88.40
69331;DHT22;56475;52.114;5.480;2022-07-23T02:51:30;12.40;86.40
69331;DHT22;56475;52.114;5.480;2022-07-23T02:54:01;12.50;86.40
69331;DHT22;56475;52.114;5.480;2022-07-23T02:56:28;13.20;86.90
69331;DHT22;56475;52.114;5.480;2022-07-23T03:02:17;12.40;88.20
69331;DHT22;56475;52.114;5.480;2022-07-23T03:04:44;12.40;86.40
69331;DHT22;56475;52.114;5.480;2022-07-23T03:07:11;12.30;86.40
69331;DHT22;56475;52.114;5.480;2022-07-23T03:09:50;12.40;86.60
69331;DHT22;56475;52.114;5.480;2022-07-23T03:12:46;12.30;89.10
69331;DHT22;56475;52.114;5.480;2022-07-23T03:15:25;12.20;88.70
69331;DHT22;56475;52.114;5.480;2022-07-23T03:17:53;12.20;89.20
69331;DHT22;56475;52.114;5.480;2022-07-23T03:20:20;12.20;88.00
69331;DHT22;56475;52.114;5.480;2022-07-23T03:22:47;12.60;87.00
69331;DHT22;56475;52.114;5.480;2022-07-23T03:25:16;12.20;86.90
69331;DHT22;56475;52.114;5.480;2022-07-23T03:27:45;12.10;86.90
69331;DHT22;56475;52.114;5.480;2022-07-23T03:30:12;12.10;88.80
69331;DHT22;56475;52.114;5.480;2022-07-23T03:32:39;12.20;87.40
69331;DHT22;56475;52.114;5.480;2022-07-23T03:35:06;12.00;87.20
69331;DHT22;56475;52.114;5.480;2022-07-23T03:37:54;12.00;87.60
69331;DHT22;56475;52.114;5.480;2022-07-23T03:40:21;12.90;90.00
69331;DHT22;56475;52.114;5.480;2022-07-23T03:42:48;12.00;87.20
69331;DHT22;56475;52.114;5.480;2022-07-23T03:45:16;12.50;87.40
69331;DHT22;56475;52.114;5.480;2022-07-23T03:47:43;12.30;87.40
69331;DHT22;56475;52.114;5.480;2022-07-23T03:50:13;12.00;88.40
69331;DHT22;56475;52.114;5.480;2022-07-23T03:52:41;12.70;88.00
69331;DHT22;56475;52.114;5.480;2022-07-23T03:55:08;12.10;87.50
69331;DHT22;56475;52.114;5.480;2022-07-23T03:57:35;11.90;87.60
69331;DHT22;56475;52.114;5.480;2022-07-23T04:00:05;11.90;87.60
69331;DHT22;56475;52.114;5.480;2022-07-23T04:02:39;11.90;88.80
69331;DHT22;56475;52.114;5.480;2022-07-23T04:05:07;11.90;88.10
69331;DHT22;56475;52.114;5.480;2022-07-23T04:07:35;11.90;87.40
69331;DHT22;56475;52.114;5.480;2022-07-23T04:10:03;12.10;87.70
69331;DHT22;56475;52.114;5.480;2022-07-23T04:12:35;11.90;87.90
69331;DHT22;56475;52.114;5.480;2022-07-23T04:15:03;11.90;89.90
69331;DHT22;56475;52.114;5.480;2022-07-23T04:17:31;11.90;88.30
69331;DHT22;56475;52.114;5.480;2022-07-23T04:19:58;11.90;88.00
69331;DHT22;56475;52.114;5.480;2022-07-23T04:22:31;12.00;88.20
69331;DHT22;56475;52.114;5.480;2022-07-23T04:28:17;12.00;90.00
69331;DHT22;56475;52.114;5.480;2022-07-23T04:30:44;12.00;88.20
69331;DHT22;56475;52.114;5.480;2022-07-23T04:33:13;12.00;88.10
69331;DHT22;56475;52.114;5.480;2022-07-23T04:35:40;12.00;88.10
69331;DHT22;56475;52.114;5.480;2022-07-23T04:38:18;12.00;88.00
69331;DHT22;56475;52.114;5.480;2022-07-23T04:40:46;12.20;88.30
69331;DHT22;56475;52.114;5.480;2022-07-23T04:43:13;12.20;88.40
69331;DHT22;56475;52.114;5.480;2022-07-23T04:45:46;12.50;88.50
69331;DHT22;56475;52.114;5.480;2022-07-23T04:48:19;12.20;88.20
69331;DHT22;56475;52.114;5.480;2022-07-23T04:50:53;12.40;90.20
69331;DHT22;56475;52.114;5.480;2022-07-23T04:53:25;12.40;89.40
69331;DHT22;56475;52.114;5.480;2022-07-23T04:55:55;12.40;88.00
69331;DHT22;56475;52.114;5.480;2022-07-23T04:58:23;12.50;88.00
69331;DHT22;56475;52.114;5.480;2022-07-23T05:01:18;12.50;88.00
69331;DHT22;56475;52.114;5.480;2022-07-23T05:03:47;12.60;89.90
69331;DHT22;56475;52.114;5.480;2022-07-23T05:06:15;12.70;89.60
69331;DHT22;56475;52.114;5.480;2022-07-23T05:08:53;12.80;88.30
69331;DHT22;56475;52.114;5.480;2022-07-23T05:11:22;13.00;90.10
69331;DHT22;56475;52.114;5.480;2022-07-23T05:13:53;13.80;88.40
69331;DHT22;56475;52.114;5.480;2022-07-23T05:16:20;13.40;88.10
69331;DHT22;56475;52.114;5.480;2022-07-23T05:18:48;13.90;88.10
69331;DHT22;56475;52.114;5.480;2022-07-23T05:21:15;13.30;87.70
69331;DHT22;56475;52.114;5.480;2022-07-23T05:23:43;13.40;87.40
69331;DHT22;56475;52.114;5.480;2022-07-23T05:26:10;13.40;87.50
69331;DHT22;56475;52.114;5.480;2022-07-23T05:28:37;13.60;87.40
69331;DHT22;56475;52.114;5.480;2022-07-23T05:31:04;13.80;87.10
69331;DHT22;56475;52.114;5.480;2022-07-23T05:37:02;13.90;88.90
69331;DHT22;56475;52.114;5.480;2022-07-23T05:39:53;14.20;87.10
69331;DHT22;56475;52.114;5.480;2022-07-23T05:42:20;14.20;88.50
69331;DHT22;56475;52.114;5.480;2022-07-23T05:44:52;14.30;86.70
69331;DHT22;56475;52.114;5.480;2022-07-23T05:50:56;14.60;88.80
69331;DHT22;56475;52.114;5.480;2022-07-23T05:53:31;14.80;86.90
69331;DHT22;56475;52.114;5.480;2022-07-23T06:03:35;15.20;87.80
69331;DHT22;56475;52.114;5.480;2022-07-23T06:06:04;15.40;85.90
69331;DHT22;56475;52.114;5.480;2022-07-23T06:08:31;15.60;85.70
69331;DHT22;56475;52.114;5.480;2022-07-23T06:11:10;15.70;85.60
69331;DHT22;56475;52.114;5.480;2022-07-23T06:13:38;15.90;87.00
69331;DHT22;56475;52.114;5.480;2022-07-23T06:16:06;15.90;84.70
69331;DHT22;56475;52.114;5.480;2022-07-23T06:18:38;16.10;84.20
69331;DHT22;56475;52.114;5.480;2022-07-23T06:21:05;16.30;85.70
69331;DHT22;56475;52.114;5.480;2022-07-23T06:23:53;16.30;83.30
69331;DHT22;56475;52.114;5.480;2022-07-23T06:26:20;16.50;82.90
69331;DHT22;56475;52.114;5.480;2022-07-23T06:28:47;16.50;82.60
69331;DHT22;56475;52.114;5.480;2022-07-23T06:31:39;16.70;82.40
69331;DHT22;56475;52.114;5.480;2022-07-23T06:34:06;16.70;83.80
69331;DHT22;56475;52.114;5.480;2022-07-23T06:39:54;17.10;82.70
69331;DHT22;56475;52.114;5.480;2022-07-23T06:42:34;17.20;80.90
69331;DHT22;56475;52.114;5.480;2022-07-23T06:45:06;17.40;82.30
69331;DHT22;56475;52.114;5.480;2022-07-23T06:47:35;17.40;80.70
69331;DHT22;56475;52.114;5.480;2022-07-23T06:50:28;17.50;79.20
69331;DHT22;56475;52.114;5.480;2022-07-23T06:52:55;17.70;80.10
69331;DHT22;56475;52.114;5.480;2022-07-23T06:55:22;17.80;78.50
69331;DHT22;56475;52.114;5.480;2022-07-23T06:57:57;17.90;78.40
69331;DHT22;56475;52.114;5.480;2022-07-23T07:00:24;18.00;79.10
69331;DHT22;56475;52.114;5.480;2022-07-23T07:02:53;18.20;77.30
69331;DHT22;56475;52.114;5.480;2022-07-23T07:05:21;18.30;77.30
69331;DHT22;56475;52.114;5.480;2022-07-23T07:11:31;18.40;76.70
69331;DHT22;56475;52.114;5.480;2022-07-23T07:13:58;18.60;75.00
69331;DHT22;56475;52.114;5.480;2022-07-23T07:16:25;18.70;74.20
69331;DHT22;56475;52.114;5.480;2022-07-23T07:18:58;18.80;73.40
69331;DHT22;56475;52.114;5.480;2022-07-23T07:21:26;19.00;72.70
69331;DHT22;56475;52.114;5.480;2022-07-23T07:23:53;19.10;71.60
69331;DHT22;56475;52.114;5.480;2022-07-23T07:26:26;19.10;70.20
69331;DHT22;56475;52.114;5.480;2022-07-23T07:29:21;19.20;71.10
69331;DHT22;56475;52.114;5.480;2022-07-23T07:31:48;19.30;71.40
69331;DHT22;56475;52.114;5.480;2022-07-23T07:34:20;19.40;69.60
69331;DHT22;56475;52.114;5.480;2022-07-23T07:36:55;19.50;70.70
69331;DHT22;56475;52.114;5.480;2022-07-23T07:39:22;19.70;70.50
69331;DHT22;56475;52.114;5.480;2022-07-23T07:42:05;19.90;69.00
69331;DHT22;56475;52.114;5.480;2022-07-23T07:51:23;20.30;68.00
69331;DHT22;56475;52.114;5.480;2022-07-23T07:53:56;20.40;66.90
69331;DHT22;56475;52.114;5.480;2022-07-23T07:56:24;20.40;67.60
69331;DHT22;56475;52.114;5.480;2022-07-23T07:59:02;20.50;66.40
69331;DHT22;56475;52.114;5.480;2022-07-23T08:01:30;20.60;67.20
69331;DHT22;56475;52.114;5.480;2022-07-23T08:04:23;20.70;66.40
69331;DHT22;56475;52.114;5.480;2022-07-23T08:06:50;20.80;66.30
69331;DHT22;56475;52.114;5.480;2022-07-23T08:12:54;21.00;65.00
69331;DHT22;56475;52.114;5.480;2022-07-23T08:15:23;21.20;63.60
69331;DHT22;56475;52.114;5.480;2022-07-23T08:17:50;21.20;62.90
69331;DHT22;56475;52.114;5.480;2022-07-23T08:20:34;21.30;62.30
69331;DHT22;56475;52.114;5.480;2022-07-23T08:23:05;21.30;63.60
69331;DHT22;56475;52.114;5.480;2022-07-23T08:25:34;21.40;61.90
69331;DHT22;56475;52.114;5.480;2022-07-23T08:28:18;21.50;61.50
69331;DHT22;56475;52.114;5.480;2022-07-23T08:30:45;21.50;62.20
69331;DHT22;56475;52.114;5.480;2022-07-23T08:33:17;21.60;61.20
69331;DHT22;56475;52.114;5.480;2022-07-23T08:36:23;21.70;61.30
69331;DHT22;56475;52.114;5.480;2022-07-23T08:38:50;21.90;60.80
69331;DHT22;56475;52.114;5.480;2022-07-23T08:41:17;22.10;59.50
69331;DHT22;56475;52.114;5.480;2022-07-23T08:43:52;22.20;59.20
69331;DHT22;56475;52.114;5.480;2022-07-23T08:46:20;22.30;58.80
69331;DHT22;56475;52.114;5.480;2022-07-23T08:48:49;22.40;58.40
69331;DHT22;56475;52.114;5.480;2022-07-23T08:51:17;22.50;57.80
69331;DHT22;56475;52.114;5.480;2022-07-23T08:53:45;22.60;57.60
69331;DHT22;56475;52.114;5.480;2022-07-23T08:56:13;22.70;57.30
69331;DHT22;56475;52.114;5.480;2022-07-23T08:58:50;22.80;57.10
69331;DHT22;56475;52.114;5.480;2022-07-23T09:01:24;23.00;56.90
69331;DHT22;56475;52.114;5.480;2022-07-23T09:03:51;23.20;56.90
69331;DHT22;56475;52.114;5.480;2022-07-23T09:06:18;23.40;56.60
69331;DHT22;56475;52.114;5.480;2022-07-23T09:08:48;23.50;56.40
69331;DHT22;56475;52.114;5.480;2022-07-23T09:11:16;23.60;56.50
69331;DHT22;56475;52.114;5.480;2022-07-23T09:13:52;23.70;55.30
69331;DHT22;56475;52.114;5.480;2022-07-23T09:16:26;23.90;55.70
69331;DHT22;56475;52.114;5.480;2022-07-23T09:19:02;24.00;55.00
69331;DHT22;56475;52.114;5.480;2022-07-23T09:21:38;24.20;54.10
69331;DHT22;56475;52.114;5.480;2022-07-23T09:24:14;24.20;53.60
69331;DHT22;56475;52.114;5.480;2022-07-23T09:26:46;24.30;52.40
69331;DHT22;56475;52.114;5.480;2022-07-23T09:33:06;24.50;51.90
69331;DHT22;56475;52.114;5.480;2022-07-23T09:35:53;24.80;52.60
69331;DHT22;56475;52.114;5.480;2022-07-23T09:38:22;25.00;51.30
69331;DHT22;56475;52.114;5.480;2022-07-23T09:41:10;25.30;49.50
69331;DHT22;56475;52.114;5.480;2022-07-23T09:43:37;25.50;49.20
69331;DHT22;56475;52.114;5.480;2022-07-23T09:46:26;25.70;48.20
69331;DHT22;56475;52.114;5.480;2022-07-23T09:52:44;26.10;48.80
69331;DHT22;56475;52.114;5.480;2022-07-23T09:55:11;26.30;47.80
69331;DHT22;56475;52.114;5.480;2022-07-23T09:57:41;26.50;46.50
69331;DHT22;56475;52.114;5.480;2022-07-23T10:00:11;26.60;47.20
69331;DHT22;56475;52.114;5.480;2022-07-23T10:02:40;26.80;46.50
69331;DHT22;56475;52.114;5.480;2022-07-23T10:05:27;27.00;45.80
69331;DHT22;56475;52.114;5.480;2022-07-23T10:07:55;27.10;45.50
69331;DHT22;56475;52.114;5.480;2022-07-23T10:10:48;27.20;45.50
69331;DHT22;56475;52.114;5.480;2022-07-23T10:17:04;27.60;45.20
69331;DHT22;56475;52.114;5.480;2022-07-23T10:19:34;27.80;43.80
69331;DHT22;56475;52.114;5.480;2022-07-23T10:22:28;28.10;43.30
69331;DHT22;56475;52.114;5.480;2022-07-23T10:27:37;28.20;42.20
69331;DHT22;56475;52.114;5.480;2022-07-23T10:35:48;28.80;41.00
69331;DHT22;56475;52.114;5.480;2022-07-23T10:38:24;29.00;40.60
69331;DHT22;56475;52.114;5.480;2022-07-23T10:41:04;29.10;40.30
69331;DHT22;56475;52.114;5.480;2022-07-23T10:43:31;29.20;40.70
69331;DHT22;56475;52.114;5.480;2022-07-23T10:46:24;29.30;40.10
69331;DHT22;56475;52.114;5.480;2022-07-23T10:49:29;29.50;39.90
69331;DHT22;56475;52.114;5.480;2022-07-23T10:54:48;29.80;39.20
69331;DHT22;56475;52.114;5.480;2022-07-23T10:57:21;30.00;39.40
69331;DHT22;56475;52.114;5.480;2022-07-23T11:02:31;30.30;37.50
69331;DHT22;56475;52.114;5.480;2022-07-23T11:05:19;30.50;37.70
69331;DHT22;56475;52.114;5.480;2022-07-23T11:24:17;31.00;36.10
69331;DHT22;56475;52.114;5.480;2022-07-23T11:26:59;31.20;36.20
69331;DHT22;56475;52.114;5.480;2022-07-23T11:32:01;31.60;34.00
69331;DHT22;56475;52.114;5.480;2022-07-23T11:34:39;31.60;33.00
69331;DHT22;56475;52.114;5.480;2022-07-23T11:37:10;31.70;32.90
69331;DHT22;56475;52.114;5.480;2022-07-23T11:40:09;31.90;32.70
69331;DHT22;56475;52.114;5.480;2022-07-23T11:42:38;32.00;33.20
69331;DHT22;56475;52.114;5.480;2022-07-23T11:45:07;32.20;32.60
69331;DHT22;56475;52.114;5.480;2022-07-23T11:47:46;32.30;32.40
69331;DHT22;56475;52.114;5.480;2022-07-23T11:50:15;32.30;32.10
69331;DHT22;56475;52.114;5.480;2022-07-23T11:52:42;32.50;30.90
69331;DHT22;56475;52.114;5.480;2022-07-23T11:55:11;32.60;33.20
69331;DHT22;56475;52.114;5.480;2022-07-23T11:57:52;32.80;32.20
69331;DHT22;56475;52.114;5.480;2022-07-23T12:00:22;33.00;32.70
69331;DHT22;56475;52.114;5.480;2022-07-23T12:02:52;33.10;31.40
69331;DHT22;56475;52.114;5.480;2022-07-23T12:05:26;33.30;31.90
69331;DHT22;56475;52.114;5.480;2022-07-23T12:07:56;33.50;31.30
69331;DHT22;56475;52.114;5.480;2022-07-23T12:13:03;33.90;30.60
69331;DHT22;56475;52.114;5.480;2022-07-23T12:15:35;34.10;30.50
69331;DHT22;56475;52.114;5.480;2022-07-23T12:18:09;34.30;29.50
69331;DHT22;56475;52.114;5.480;2022-07-23T12:20:41;34.40;28.90
69331;DHT22;56475;52.114;5.480;2022-07-23T12:23:12;34.50;28.30
69331;DHT22;56475;52.114;5.480;2022-07-23T12:25:47;34.60;28.70
69331;DHT22;56475;52.114;5.480;2022-07-23T12:28:20;34.70;28.40
69331;DHT22;56475;52.114;5.480;2022-07-23T12:31:07;34.80;28.10
69331;DHT22;56475;52.114;5.480;2022-07-23T12:33:38;34.90;28.30
69331;DHT22;56475;52.114;5.480;2022-07-23T12:36:19;35.00;28.20
69331;DHT22;56475;52.114;5.480;2022-07-23T12:38:48;35.10;28.50
69331;DHT22;56475;52.114;5.480;2022-07-23T12:41:16;35.30;28.40
69331;DHT22;56475;52.114;5.480;2022-07-23T12:43:44;35.50;28.40
69331;DHT22;56475;52.114;5.480;2022-07-23T12:48:53;35.70;28.20
69331;DHT22;56475;52.114;5.480;2022-07-23T12:51:30;35.70;28.40
69331;DHT22;56475;52.114;5.480;2022-07-23T12:54:06;35.80;27.90
69331;DHT22;56475;52.114;5.480;2022-07-23T12:56:35;35.80;27.50
69331;DHT22;56475;52.114;5.480;2022-07-23T13:01:33;35.40;28.20
69331;DHT22;56475;52.114;5.480;2022-07-23T13:04:09;35.40;27.70
69331;DHT22;56475;52.114;5.480;2022-07-23T13:06:41;35.40;27.70
69331;DHT22;56475;52.114;5.480;2022-07-23T13:09:16;35.60;27.40
69331;DHT22;56475;52.114;5.480;2022-07-23T13:11:45;35.70;27.00
69331;DHT22;56475;52.114;5.480;2022-07-23T13:14:14;35.80;27.20
69331;DHT22;56475;52.114;5.480;2022-07-23T13:16:42;35.80;27.40
69331;DHT22;56475;52.114;5.480;2022-07-23T13:19:11;35.80;27.30
69331;DHT22;56475;52.114;5.480;2022-07-23T13:21:41;35.90;26.90
69331;DHT22;56475;52.114;5.480;2022-07-23T13:24:12;35.90;27.10
69331;DHT22;56475;52.114;5.480;2022-07-23T13:26:43;36.20;27.90
69331;DHT22;56475;52.114;5.480;2022-07-23T13:29:16;36.40;27.00
69331;DHT22;56475;52.114;5.480;2022-07-23T13:32:04;36.50;27.20
69331;DHT22;56475;52.114;5.480;2022-07-23T13:34:39;36.70;27.20
69331;DHT22;56475;52.114;5.480;2022-07-23T13:37:08;36.80;27.00
69331;DHT22;56475;52.114;5.480;2022-07-23T13:39:35;36.90;26.60
69331;DHT22;56475;52.114;5.480;2022-07-23T13:42:05;36.90;26.20
69331;DHT22;56475;52.114;5.480;2022-07-23T13:44:34;36.90;26.00
69331;DHT22;56475;52.114;5.480;2022-07-23T13:47:02;36.60;26.10
69331;DHT22;56475;52.114;5.480;2022-07-23T13:49:34;36.20;26.50
69331;DHT22;56475;52.114;5.480;2022-07-23T13:52:27;35.80;26.80
69331;DHT22;56475;52.114;5.480;2022-07-23T13:54:54;35.20;27.50
69331;DHT22;56475;52.114;5.480;2022-07-23T13:57:24;35.10;27.90
69331;DHT22;56475;52.114;5.480;2022-07-23T13:59:52;35.10;27.80
69331;DHT22;56475;52.114;5.480;2022-07-23T14:02:19;35.20;27.60
69331;DHT22;56475;52.114;5.480;2022-07-23T14:04:51;35.30;27.60
69331;DHT22;56475;52.114;5.480;2022-07-23T14:07:19;35.60;27.40
69331;DHT22;56475;52.114;5.480;2022-07-23T14:09:54;35.90;27.00
69331;DHT22;56475;52.114;5.480;2022-07-23T14:12:21;36.20;26.90
69331;DHT22;56475;52.114;5.480;2022-07-23T14:14:49;36.40;26.40
69331;DHT22;56475;52.114;5.480;2022-07-23T14:17:36;36.60;26.00
69331;DHT22;56475;52.114;5.480;2022-07-23T14:20:05;36.90;25.90
69331;DHT22;56475;52.114;5.480;2022-07-23T14:22:33;36.90;25.40
69331;DHT22;56475;52.114;5.480;2022-07-23T14:25:00;36.50;25.20
69331;DHT22;56475;52.114;5.480;2022-07-23T14:27:27;36.10;25.90
69331;DHT22;56475;52.114;5.480;2022-07-23T14:29:55;36.10;26.50
69331;DHT22;56475;52.114;5.480;2022-07-23T14:32:23;36.20;26.60
69331;DHT22;56475;52.114;5.480;2022-07-23T14:38:12;36.30;26.70
69331;DHT22;56475;52.114;5.480;2022-07-23T14:40:45;36.10;26.20
69331;DHT22;56475;52.114;5.480;2022-07-23T14:43:40;36.00;26.50
69331;DHT22;56475;52.114;5.480;2022-07-23T14:46:11;35.90;26.70
69331;DHT22;56475;52.114;5.480;2022-07-23T14:51:56;35.40;26.90
69331;DHT22;56475;52.114;5.480;2022-07-23T14:54:24;34.90;27.20
69331;DHT22;56475;52.114;5.480;2022-07-23T14:56:58;34.30;27.80
69331;DHT22;56475;52.114;5.480;2022-07-23T14:59:25;33.80;28.80
69331;DHT22;56475;52.114;5.480;2022-07-23T15:02:03;33.50;29.00
69331;DHT22;56475;52.114;5.480;2022-07-23T15:04:31;33.40;29.10
69331;DHT22;56475;52.114;5.480;2022-07-23T15:07:04;33.40;29.20
69331;DHT22;56475;52.114;5.480;2022-07-23T15:09:31;33.10;29.20
69331;DHT22;56475;52.114;5.480;2022-07-23T15:11:58;32.80;29.50
69331;DHT22;56475;52.114;5.480;2022-07-23T15:14:25;32.80;30.00
69331;DHT22;56475;52.114;5.480;2022-07-23T15:17:00;33.00;31.50
69331;DHT22;56475;52.114;5.480;2022-07-23T15:19:27;32.90;30.00
69331;DHT22;56475;52.114;5.480;2022-07-23T15:21:57;32.90;30.20
69331;DHT22;56475;52.114;5.480;2022-07-23T15:24:27;32.90;30.00
69331;DHT22;56475;52.114;5.480;2022-07-23T15:27:00;33.10;30.00
69331;DHT22;56475;52.114;5.480;2022-07-23T15:29:27;33.40;29.80
69331;DHT22;56475;52.114;5.480;2022-07-23T15:31:55;33.60;29.40
69331;DHT22;56475;52.114;5.480;2022-07-23T15:34:26;33.90;29.30
69331;DHT22;56475;52.114;5.480;2022-07-23T15:36:53;34.00;29.60
69331;DHT22;56475;52.114;5.480;2022-07-23T15:39:45;34.30;29.50
69331;DHT22;56475;52.114;5.480;2022-07-23T15:42:12;34.50;29.50
69331;DHT22;56475;52.114;5.480;2022-07-23T15:44:41;34.70;28.80
69331;DHT22;56475;52.114;5.480;2022-07-23T15:47:15;34.90;28.70
69331;DHT22;56475;52.114;5.480;2022-07-23T15:49:43;35.00;28.20
69331;DHT22;56475;52.114;5.480;2022-07-23T15:52:11;35.10;28.20
69331;DHT22;56475;52.114;5.480;2022-07-23T15:54:39;34.90;28.10
69331;DHT22;56475;52.114;5.480;2022-07-23T15:57:07;34.60;28.30
69331;DHT22;56475;52.114;5.480;2022-07-23T15:59:34;34.10;28.80
69331;DHT22;56475;52.114;5.480;2022-07-23T16:05:37;33.20;29.60
69331;DHT22;56475;52.114;5.480;2022-07-23T16:08:05;32.60;30.60
69331;DHT22;56475;52.114;5.480;2022-07-23T16:10:32;32.20;31.00
69331;DHT22;56475;52.114;5.480;2022-07-23T16:12:59;31.90;31.30
69331;DHT22;56475;52.114;5.480;2022-07-23T16:15:26;31.50;32.80
69331;DHT22;56475;52.114;5.480;2022-07-23T16:21:16;30.80;33.70
69331;DHT22;56475;52.114;5.480;2022-07-23T16:23:44;30.40;34.40
69331;DHT22;56475;52.114;5.480;2022-07-23T16:26:11;30.10;35.30
69331;DHT22;56475;52.114;5.480;2022-07-23T16:28:40;29.70;35.90
69331;DHT22;56475;52.114;5.480;2022-07-23T16:31:07;29.40;37.10
69331;DHT22;56475;52.114;5.480;2022-07-23T16:33:39;29.30;37.70
69331;DHT22;56475;52.114;5.480;2022-07-23T16:36:07;29.30;37.30
69331;DHT22;56475;52.114;5.480;2022-07-23T16:38:35;29.30;37.50
69331;DHT22;56475;52.114;5.480;2022-07-23T16:41:04;29.50;37.30
69331;DHT22;56475;52.114;5.480;2022-07-23T16:43:32;29.80;37.30
69331;DHT22;56475;52.114;5.480;2022-07-23T16:46:16;30.10;36.30
69331;DHT22;56475;52.114;5.480;2022-07-23T16:48:43;30.40;35.60
69331;DHT22;56475;52.114;5.480;2022-07-23T16:51:11;30.70;34.50
69331;DHT22;56475;52.114;5.480;2022-07-23T16:53:38;30.80;36.00
69331;DHT22;56475;52.114;5.480;2022-07-23T16:56:06;31.10;33.70
69331;DHT22;56475;52.114;5.480;2022-07-23T16:58:34;31.40;33.60
69331;DHT22;56475;52.114;5.480;2022-07-23T17:01:01;31.50;34.00
69331;DHT22;56475;52.114;5.480;2022-07-23T17:03:28;31.60;33.20
69331;DHT22;56475;52.114;5.480;2022-07-23T17:05:56;31.60;32.80
69331;DHT22;56475;52.114;5.480;2022-07-23T17:08:24;31.50;33.00
69331;DHT22;56475;52.114;5.480;2022-07-23T17:10:55;31.50;33.00
69331;DHT22;56475;52.114;5.480;2022-07-23T17:13:23;31.50;33.00
69331;DHT22;56475;52.114;5.480;2022-07-23T17:15:51;31.50;32.90
69331;DHT22;56475;52.114;5.480;2022-07-23T17:18:18;31.50;33.50
69331;DHT22;56475;52.114;5.480;2022-07-23T17:20:45;31.50;33.60
69331;DHT22;56475;52.114;5.480;2022-07-23T17:23:12;31.40;34.30
69331;DHT22;56475;52.114;5.480;2022-07-23T17:25:39;31.10;34.20
69331;DHT22;56475;52.114;5.480;2022-07-23T17:28:07;30.80;35.20
69331;DHT22;56475;52.114;5.480;2022-07-23T17:30:34;30.40;36.90
69331;DHT22;56475;52.114;5.480;2022-07-23T17:33:01;30.00;35.80
69331;DHT22;56475;52.114;5.480;2022-07-23T17:35:33;29.70;36.50
69331;DHT22;56475;52.114;5.480;2022-07-23T17:38:03;29.30;37.00
69331;DHT22;56475;52.114;5.480;2022-07-23T17:40:30;28.90;37.40
69331;DHT22;56475;52.114;5.480;2022-07-23T17:42:57;28.60;37.90
69331;DHT22;56475;52.114;5.480;2022-07-23T17:45:24;28.40;38.90
69331;DHT22;56475;52.114;5.480;2022-07-23T17:47:52;28.20;39.50
69331;DHT22;56475;52.114;5.480;2022-07-23T17:50:19;28.00;41.20
69331;DHT22;56475;52.114;5.480;2022-07-23T17:52:56;27.90;43.60
69331;DHT22;56475;52.114;5.480;2022-07-23T17:55:25;27.70;44.30
69331;DHT22;56475;52.114;5.480;2022-07-23T17:57:53;27.50;44.60
69331;DHT22;56475;52.114;5.480;2022-07-23T18:00:24;27.40;45.30